Time;durP1;ratioP1;P1;durP2;ratioP2;P2;SDS_P1;SDS_P2;PMS_P1;PMS_P2;Temp;Humidity;BMP_temperature;BMP_pressure;BME280_temperature;BME280_humidity;BME280_pressure;Samples;Min_cycle;Max_cycle;Signal;HPM_P1;HPM_P2
2023/10/27 00:01:40;;;;;;;33.70;32.20;;;;;;;-141.02;100.00;38774.28;5135528;27;20694;-64
2023/10/27 00:04:07;;;;;;;31.63;30.33;;;;;;;-141.02;100.00;38753.19;5135826;27;20215;-64
2023/10/27 00:06:34;;;;;;;31.05;29.75;;;;;;;-141.02;100.00;38684.16;5135751;27;20576;-64
2023/10/27 00:09:02;;;;;;;11.82;11.43;;;;;;;-141.02;100.00;38603.63;5135405;27;20792;-64
2023/10/27 00:11:42;;;;;;;12.18;11.77;;;;;;;-141.02;100.00;38574.88;5135663;27;20203;-64
2023/10/27 00:14:09;;;;;;;12.00;11.60;;;;;;;-141.02;100.00;38519.28;5135324;27;20670;-64
2023/10/27 00:16:36;;;;;;;31.50;30.20;;;;;;;-141.02;100.00;38515.44;5134933;27;20277;-65
2023/10/27 00:19:07;;;;;;;20.20;19.50;;;;;;;-141.02;100.00;38498.19;5135249;27;20197;-64
2023/10/27 00:21:36;;;;;;;29.70;28.50;;;;;;;-141.02;100.00;38484.75;5135496;27;20196;-64
2023/10/27 00:24:04;;;;;;;27.98;26.88;;;;;;;-141.02;100.00;38446.41;5135458;27;20280;-65
2023/10/27 00:26:31;;;;;;;12.48;12.07;;;;;;;-141.02;100.00;38427.25;5135124;27;20188;-64
2023/10/27 00:29:05;;;;;;;12.60;12.20;;;;;;;-141.02;100.00;38421.50;5135330;27;20224;-65
2023/10/27 00:32:25;;;;;;;12.98;12.57;;;;;;;-141.02;100.00;38392.75;5134994;27;20650;-64
2023/10/27 00:34:57;;;;;;;32.20;30.80;;;;;;;-141.02;100.00;38381.22;5093926;28;20230;-64
2023/10/27 00:37:24;;;;;;;29.80;28.60;;;;;;;-141.02;100.00;38342.88;5094290;28;20231;-64
2023/10/27 00:39:51;;;;;;;28.60;27.40;;;;;;;-141.02;100.00;38342.88;5093891;28;20205;-64
2023/10/27 00:42:18;;;;;;;27.73;26.63;;;;;;;-141.02;100.00;38331.38;5094172;28;20258;-65
2023/10/27 00:44:46;;;;;;;19.40;18.70;;;;;;;-141.02;100.00;38258.53;5093819;28;20727;-64
2023/10/27 00:47:19;;;;;;;12.02;11.63;;;;;;;-141.02;100.00;38248.94;5093735;28;20193;-64
2023/10/27 00:49:47;;;;;;;13.40;13.00;;;;;;;-141.02;100.00;38247.03;5093725;28;20592;-64
2023/10/27 00:52:16;;;;;;;12.13;11.73;;;;;;;-141.02;100.00;38239.38;5094428;28;20221;-64
2023/10/27 00:54:50;;;;;;;28.70;27.50;;;;;;;-141.02;100.00;38239.38;5093935;28;20299;-65
2023/10/27 00:57:18;;;;;;;24.65;23.75;;;;;;;-141.02;100.00;38225.94;5093536;28;20196;-64
2023/10/27 00:59:53;;;;;;;26.85;25.77;;;;;;;-141.02;100.00;38220.19;5093847;28;20267;-65
2023/10/27 01:02:22;;;;;;;27.88;26.77;;;;;;;-141.02;100.00;38250.88;5093462;28;20193;-65
2023/10/27 01:04:50;;;;;;;12.80;12.40;;;;;;;-141.02;100.00;38235.53;5093426;28;20197;-64
2023/10/27 01:07:20;;;;;;;12.75;12.35;;;;;;;-141.02;100.00;38270.03;5093410;28;20197;-64
2023/10/27 01:09:47;;;;;;;13.20;12.80;;;;;;;-141.02;100.00;38279.63;5093564;28;20275;-64
2023/10/27 01:12:16;;;;;;;31.90;30.50;;;;;;;-141.02;100.00;38250.88;5093610;28;20201;-65
2023/10/27 01:14:43;;;;;;;31.48;30.17;;;;;;;-141.02;100.00;38262.38;5093500;28;20216;-65
2023/10/27 01:17:10;;;;;;;29.55;28.35;;;;;;;-141.02;100.00;38254.69;5093184;28;20544;-64
2023/10/27 01:19:37;;;;;;;30.67;29.30;;;;;;;-141.02;100.00;38273.88;5093410;28;20198;-65
2023/10/27 01:22:05;;;;;;;30.27;28.98;;;;;;;-141.02;100.00;38294.97;5093160;28;20243;-64
2023/10/27 01:24:34;;;;;;;13.10;12.70;;;;;;;-141.02;100.00;38281.53;5093103;28;20204;-64
2023/10/27 01:27:01;;;;;;;14.07;13.60;;;;;;;-141.02;100.00;38262.38;5093236;28;20243;-65
2023/10/27 01:29:41;;;;;;;13.73;13.32;;;;;;;-141.02;100.00;38266.19;5092586;28;20596;-65
2023/10/27 01:33:01;;;;;;;32.03;30.63;;;;;;;-141.02;100.00;38289.22;5093232;28;20581;-65
2023/10/27 01:35:28;;;;;;;30.33;29.02;;;;;;;-141.02;100.00;38262.38;5134164;27;20189;-64
2023/10/27 01:37:55;;;;;;;30.65;29.35;;;;;;;-141.02;100.00;38294.97;5133640;27;20199;-65
2023/10/27 01:40:32;;;;;;;32.55;31.15;;;;;;;-141.02;100.00;38285.38;5133941;27;20192;-65
2023/10/27 01:43:00;;;;;;;12.88;12.48;;;;;;;-141.02;100.00;38302.63;5133918;27;20204;-65
2023/10/27 01:45:27;;;;;;;14.05;13.55;;;;;;;-141.02;100.00;38283.47;5133596;27;20189;-65
2023/10/27 01:48:03;;;;;;;13.70;13.30;;;;;;;-141.02;100.00;38310.28;5133426;27;20199;-65
2023/10/27 01:50:33;;;;;;;32.47;31.02;;;;;;;-141.02;100.00;38300.72;5133761;27;20195;-65
2023/10/27 01:53:00;;;;;;;33.80;32.30;;;;;;;-141.02;100.00;38302.63;5133391;27;20284;-65
2023/10/27 01:55:45;;;;;;;32.45;31.05;;;;;;;-141.02;100.00;38316.06;5133652;27;20280;-65
2023/10/27 01:58:12;;;;;;;34.40;32.88;;;;;;;-141.02;100.00;38319.88;5133339;27;20200;-65
2023/10/27 02:00:39;;;;;;;13.13;12.73;;;;;;;-141.02;100.00;38304.53;5133367;27;20192;-64
2023/10/27 02:03:06;;;;;;;14.02;13.52;;;;;;;-141.02;100.00;38331.38;5133616;27;20201;-65
2023/10/27 02:05:33;;;;;;;13.30;12.90;;;;;;;-141.02;100.00;38369.72;5133204;27;20196;-64
2023/10/27 02:08:05;;;;;;;32.47;31.08;;;;;;;-141.02;100.00;38362.06;5133105;27;20239;-65
2023/10/27 02:10:32;;;;;;;33.03;31.63;;;;;;;-141.02;100.00;38354.41;5133113;27;20556;-65
2023/10/27 02:13:00;;;;;;;34.42;32.92;;;;;;;-141.02;100.00;38385.06;5133204;27;20196;-65
2023/10/27 02:15:52;;;;;;;34.25;32.75;;;;;;;-141.02;100.00;38348.63;5133142;27;20193;-65
2023/10/27 02:18:19;;;;;;;14.50;14.00;;;;;;;-141.02;100.00;38354.41;5133347;27;20283;-65
2023/10/27 02:20:48;;;;;;;14.25;13.75;;;;;;;-141.02;100.00;38388.91;5133000;27;20232;-64
2023/10/27 02:23:16;;;;;;;13.68;13.27;;;;;;;-141.02;100.00;38363.97;5133079;27;20200;-65
2023/10/27 02:25:44;;;;;;;33.55;32.05;;;;;;;-141.02;100.00;38423.41;5132912;27;20292;-65
2023/10/27 02:28:13;;;;;;;35.85;34.25;;;;;;;-141.02;100.00;38436.84;5132863;27;20256;-64
2023/10/27 02:30:40;;;;;;;36.30;34.70;;;;;;;-141.02;100.00;38413.81;5132989;27;20196;-65
2023/10/27 02:33:10;;;;;;;36.28;34.67;;;;;;;-141.02;100.00;38452.16;5132637;27;20273;-65
2023/10/27 02:35:40;;;;;;;35.30;33.75;;;;;;;-141.02;100.00;38477.09;5132923;28;20191;-64
2023/10/27 02:38:07;;;;;;;14.13;13.63;;;;;;;-141.02;100.00;38511.59;5132847;27;20719;-64
2023/10/27 02:40:36;;;;;;;13.82;13.43;;;;;;;-141.02;100.00;38542.28;5136234;27;20192;-65
2023/10/27 02:43:03;;;;;;;14.50;14.00;;;;;;;-141.02;100.00;38565.28;5137075;27;20662;-65
2023/10/27 02:45:32;;;;;;;40.58;38.58;;;;;;;-141.02;100.00;38657.31;5137368;27;20196;-65
2023/10/27 02:48:04;;;;;;;40.70;38.75;;;;;;;-141.02;100.00;38603.63;5137041;27;20287;-65
2023/10/27 02:50:32;;;;;;;42.85;40.75;;;;;;;-141.02;100.00;38659.25;5137237;27;20203;-65
2023/10/27 02:53:01;;;;;;;41.85;39.95;;;;;;;-141.02;100.00;38657.31;5137239;27;20193;-65
2023/10/27 02:55:36;;;;;;;15.60;15.00;;;;;;;-141.02;100.00;38676.50;5136919;27;20768;-65
2023/10/27 02:58:03;;;;;;;14.90;14.40;;;;;;;-141.02;100.00;38691.84;5137118;27;20606;-65
2023/10/27 03:00:32;;;;;;;14.38;13.88;;;;;;;-141.02;100.00;38691.84;5136701;27;20196;-65
2023/10/27 03:02:59;;;;;;;38.25;36.45;;;;;;;-141.02;100.00;38691.84;5137087;27;20291;-65
2023/10/27 03:05:25;;;;;;;39.85;37.95;;;;;;;-141.02;100.00;38695.66;5136928;27;20228;-65
2023/10/27 03:07:52;;;;;;;38.83;37.03;;;;;;;-141.02;100.00;38682.25;5136958;27;20192;-65
2023/10/27 03:10:20;;;;;;;36.72;35.03;;;;;;;-141.02;100.00;38678.41;5136794;27;20315;-65
2023/10/27 03:12:55;;;;;;;36.30;34.70;;;;;;;-141.02;100.00;38758.94;5136507;27;20569;-65
2023/10/27 03:15:22;;;;;;;14.93;14.43;;;;;;;-141.02;100.00;38684.16;5136873;27;20220;-65
2023/10/27 03:17:51;;;;;;;14.60;14.10;;;;;;;-141.02;100.00;38668.81;5136746;27;20277;-66
2023/10/27 03:20:18;;;;;;;14.13;13.63;;;;;;;-141.02;100.00;38680.34;5136420;27;20677;-65
2023/10/27 03:22:47;;;;;;;36.30;34.60;;;;;;;-141.02;100.00;38689.91;5136349;27;20287;-66
2023/10/27 03:25:17;;;;;;;36.10;34.40;;;;;;;-141.02;100.00;38695.66;5136628;27;20241;-65
2023/10/27 03:27:44;;;;;;;35.63;34.03;;;;;;;-141.02;100.00;38691.84;5136196;27;20574;-65
2023/10/27 03:30:12;;;;;;;27.83;26.67;;;;;;;-141.02;100.00;38684.16;5136490;27;20273;-65
2023/10/27 03:32:39;;;;;;;14.77;14.27;;;;;;;-141.02;100.00;38691.84;5136490;27;20192;-65
2023/10/27 03:35:08;;;;;;;14.52;14.02;;;;;;;-141.02;100.00;38668.81;5135960;27;20232;-65
2023/10/27 03:37:35;;;;;;;14.13;13.63;;;;;;;-141.02;100.00;38695.66;5136125;27;20241;-65
2023/10/27 03:40:04;;;;;;;29.60;28.33;;;;;;;-141.02;100.00;38695.66;5136354;27;20573;-65
2023/10/27 03:42:31;;;;;;;31.23;29.92;;;;;;;-141.02;100.00;38691.84;5135963;27;20189;-65
2023/10/27 03:44:58;;;;;;;30.55;29.25;;;;;;;-141.02;100.00;38665.00;5136169;27;20578;-65
2023/10/27 03:47:25;;;;;;;30.48;29.17;;;;;;;-141.02;100.00;38689.91;5135817;27;20288;-65
2023/10/27 03:49:52;;;;;;;20.10;19.30;;;;;;;-141.02;100.00;38651.56;5136488;27;20698;-65
2023/10/27 03:52:20;;;;;;;14.13;13.63;;;;;;;-141.02;100.00;38676.50;5134996;27;20188;-65
2023/10/27 03:54:47;;;;;;;13.95;13.45;;;;;;;-141.02;100.00;38684.16;5135803;27;20727;-65
2023/10/27 03:57:14;;;;;;;14.15;13.65;;;;;;;-141.02;100.00;38695.66;5135665;27;20192;-65
2023/10/27 03:59:41;;;;;;;32.75;31.30;;;;;;;-141.02;100.00;38686.09;5135954;27;20253;-65
2023/10/27 04:02:08;;;;;;;31.90;30.50;;;;;;;-141.02;100.00;38695.66;5135647;27;20238;-65
2023/10/27 04:04:35;;;;;;;33.08;31.58;;;;;;;-141.02;100.00;38707.19;5135476;27;20236;-65
2023/10/27 04:07:02;;;;;;;32.50;31.02;;;;;;;-141.02;100.00;38682.25;5135534;27;20235;-65
2023/10/27 04:09:31;;;;;;;14.07;13.57;;;;;;;-141.02;100.00;38695.66;5135306;27;20701;-65
2023/10/27 04:11:58;;;;;;;14.50;14.00;;;;;;;-141.02;100.00;38695.66;5135427;27;20287;-65
2023/10/27 04:14:25;;;;;;;14.30;13.80;;;;;;;-141.02;100.00;38703.34;5135334;27;20638;-65
2023/10/27 04:16:52;;;;;;;27.85;26.65;;;;;;;-141.02;100.00;38680.34;5135285;27;20200;-65
2023/10/27 04:19:19;;;;;;;25.48;24.38;;;;;;;-141.02;100.00;38707.19;5135616;27;20221;-65
2023/10/27 04:21:46;;;;;;;34.85;33.25;;;;;;;-141.02;100.00;38730.19;5135500;27;20228;-65
2023/10/27 04:24:13;;;;;;;34.55;32.95;;;;;;;-141.02;100.00;38711.00;5135154;27;20192;-65
2023/10/27 04:26:41;;;;;;;37.00;35.30;;;;;;;-141.02;100.00;38712.94;5135072;27;20658;-65
2023/10/27 04:29:08;;;;;;;13.98;13.48;;;;;;;-141.02;100.00;38730.19;5135031;27;20280;-65
2023/10/27 04:31:35;;;;;;;14.00;13.50;;;;;;;-141.02;100.00;38741.69;5135315;27;20196;-65
2023/10/27 04:34:03;;;;;;;13.88;13.38;;;;;;;-141.02;100.00;38722.50;5134837;27;20224;-65
2023/10/27 04:36:30;;;;;;;32.03;30.52;;;;;;;-141.02;100.00;38732.09;5135253;27;20196;-65
2023/10/27 04:38:57;;;;;;;34.03;32.42;;;;;;;-141.02;100.00;38747.44;5134782;27;20192;-65
2023/10/27 04:41:25;;;;;;;34.00;32.40;;;;;;;-141.02;100.00;38734.03;5135111;27;20227;-65
2023/10/27 04:43:53;;;;;;;34.55;32.95;;;;;;;-141.02;100.00;38795.38;5135033;27;20279;-65
2023/10/27 04:46:20;;;;;;;14.55;14.05;;;;;;;-141.02;100.00;38829.88;5134775;27;20283;-65
2023/10/27 04:48:47;;;;;;;14.20;13.60;;;;;;;-141.02;100.00;38833.72;5134978;27;20196;-65
2023/10/27 04:51:14;;;;;;;14.45;13.85;;;;;;;-141.02;100.00;38881.66;5134592;27;20217;-65
2023/10/27 04:53:41;;;;;;;18.85;18.02;;;;;;;-141.02;100.00;38893.16;5134687;27;20650;-66
2023/10/27 04:56:08;;;;;;;42.00;39.80;;;;;;;-141.02;100.00;38933.44;5134540;27;20196;-65
2023/10/27 04:58:35;;;;;;;42.63;40.50;;;;;;;-141.02;100.00;38994.78;5135626;27;20629;-66
2023/10/27 05:01:04;;;;;;;45.95;43.65;;;;;;;-141.02;100.00;39102.19;5134501;27;20204;-65
2023/10/27 05:03:31;;;;;;;47.13;44.72;;;;;;;-141.02;100.00;39221.06;5133328;27;20196;-67
2023/10/27 05:06:07;;;;;;;14.63;13.93;;;;;;;-141.02;100.00;39313.13;5134749;27;20195;-65
2023/10/27 05:08:34;;;;;;;14.23;13.63;;;;;;;-141.02;100.00;39424.34;5134691;27;20248;-66
2023/10/27 05:11:01;;;;;;;14.50;13.90;;;;;;;-141.02;100.00;39474.22;5134189;27;20228;-65
2023/10/27 05:13:28;;;;;;;44.90;42.60;;;;;;;-141.02;100.00;39531.75;5134500;27;20192;-66
2023/10/27 05:15:55;;;;;;;48.67;46.17;;;;;;;-141.02;100.00;39570.13;5134227;27;20283;-65
2023/10/27 05:18:24;;;;;;;49.45;46.95;;;;;;;-141.02;100.00;39589.28;5134430;27;20193;-65
2023/10/27 05:20:50;;;;;;;49.28;46.78;;;;;;;-141.02;100.00;39589.28;5134435;27;20227;-65
2023/10/27 05:23:17;;;;;;;14.35;13.75;;;;;;;-141.02;100.00;39585.44;5134059;27;20284;-65
2023/10/27 05:25:44;;;;;;;14.85;14.18;;;;;;;-141.02;100.00;39566.28;5134004;27;20203;-65
2023/10/27 05:28:18;;;;;;;15.10;14.40;;;;;;;-141.02;100.00;39612.31;5133998;27;20253;-65
2023/10/27 05:30:46;;;;;;;36.97;35.05;;;;;;;-141.02;100.00;39664.09;5133648;27;20259;-66
2023/10/27 05:33:13;;;;;;;42.67;40.45;;;;;;;-141.02;100.00;39706.28;5133798;27;20215;-65
2023/10/27 05:35:42;;;;;;;40.05;38.05;;;;;;;-141.02;100.00;39756.16;5133876;27;20646;-65
2023/10/27 05:38:09;;;;;;;46.28;43.78;;;;;;;-141.02;100.00;39738.88;5133728;27;20189;-65
2023/10/27 05:40:36;;;;;;;46.42;43.92;;;;;;;-141.02;100.00;39804.09;5134095;27;20249;-65
2023/10/27 05:43:03;;;;;;;14.82;14.13;;;;;;;-141.02;100.00;39853.97;5133628;27;20192;-66
2023/10/27 05:45:30;;;;;;;15.48;14.68;;;;;;;-141.02;100.00;39919.19;5134025;27;20238;-65
2023/10/27 05:47:57;;;;;;;15.55;14.75;;;;;;;-141.02;100.00;39938.38;5133989;27;20188;-65
2023/10/27 05:50:24;;;;;;;38.30;36.20;;;;;;;-141.02;100.00;39953.72;5133712;27;20277;-65
2023/10/27 05:52:52;;;;;;;41.63;39.42;;;;;;;-141.02;100.00;39982.47;5133889;27;20189;-65
2023/10/27 05:55:19;;;;;;;43.50;41.20;;;;;;;-141.02;100.00;40007.41;5133416;27;20192;-65
2023/10/27 05:57:46;;;;;;;32.50;30.90;;;;;;;-141.02;100.00;40041.94;5133454;27;20193;-65
2023/10/27 06:00:13;;;;;;;15.55;14.85;;;;;;;-141.02;100.00;40122.50;5133373;27;20283;-65
2023/10/27 06:02:40;;;;;;;16.00;15.20;;;;;;;-141.02;100.00;40116.75;5133674;27;20540;-65
2023/10/27 06:05:08;;;;;;;31.85;30.15;;;;;;;-141.02;100.00;40162.78;5133289;27;20650;-65
2023/10/27 06:07:35;;;;;;;37.60;35.50;;;;;;;-141.02;100.00;40118.66;5133583;27;20245;-65
2023/10/27 06:10:04;;;;;;;15.75;14.95;;;;;;;-141.02;100.00;40187.72;5133574;27;20255;-66
2023/10/27 06:12:31;;;;;;;15.88;14.98;;;;;;;-141.02;100.00;40134.00;5133491;27;20188;-66
2023/10/27 06:14:58;;;;;;;16.23;15.32;;;;;;;-141.02;100.00;40176.22;5132822;27;20200;-65
2023/10/27 06:17:26;;;;;;;15.93;15.02;;;;;;;-141.02;100.00;40203.06;5133440;27;20663;-66
2023/10/27 06:19:53;;;;;;;16.25;15.27;;;;;;;-141.02;100.00;40191.56;5133445;27;20200;-65
2023/10/27 06:22:20;;;;;;;16.30;15.32;;;;;;;-141.02;100.00;40274.06;5133081;27;20625;-65
2023/10/27 06:24:47;;;;;;;16.08;15.18;;;;;;;-141.02;100.00;40283.63;5133385;27;20231;-66
2023/10/27 06:27:16;;;;;;;16.98;15.88;;;;;;;-141.02;100.00;40275.97;5133255;27;20220;-65
2023/10/27 06:29:43;;;;;;;16.88;15.88;;;;;;;-141.02;100.00;40281.72;5133184;28;20246;-66
2023/10/27 06:32:10;;;;;;;17.05;16.05;;;;;;;-141.02;100.00;40298.97;5133301;28;20627;-66
2023/10/27 06:34:37;;;;;;;16.75;15.75;;;;;;;-141.02;100.00;40289.41;5132884;28;20224;-65
2023/10/27 06:37:06;;;;;;;16.90;15.90;;;;;;;-141.02;100.00;40348.88;5132975;27;20197;-65
2023/10/27 06:39:34;;;;;;;16.58;15.68;;;;;;;-141.02;100.00;40345.03;5133273;28;20219;-65
2023/10/27 06:42:01;;;;;;;16.52;15.63;;;;;;;-141.02;100.00;40371.88;5132855;28;20203;-65
2023/10/27 06:44:30;;;;;;;16.73;15.73;;;;;;;-141.02;100.00;40368.03;5133204;27;20201;-65
2023/10/27 06:46:57;;;;;;;16.88;15.88;;;;;;;-141.02;100.00;40396.81;5132902;28;20196;-65
2023/10/27 06:49:25;;;;;;;16.90;16.00;;;;;;;-141.02;100.00;40425.59;5133081;28;20279;-65
2023/10/27 06:51:52;;;;;;;17.13;16.23;;;;;;;-141.02;100.00;40394.91;5132898;27;20688;-65
2023/10/27 06:54:19;;;;;;;17.38;16.38;;;;;;;-141.02;100.00;40406.41;5133031;28;20196;-66
2023/10/27 06:56:46;;;;;;;17.55;16.55;;;;;;;-141.02;100.00;40414.09;5133077;28;20275;-66
2023/10/27 06:59:13;;;;;;;17.40;16.40;;;;;;;-141.02;100.00;40412.16;5133085;28;20192;-65
2023/10/27 07:01:43;;;;;;;17.58;16.58;;;;;;;-141.02;100.00;40456.28;5132721;28;20200;-65
2023/10/27 07:04:11;;;;;;;17.45;16.45;;;;;;;-141.02;100.00;40465.88;5132700;28;20195;-65
2023/10/27 07:06:38;;;;;;;17.52;16.52;;;;;;;-141.02;100.00;40515.75;5132643;28;20192;-66
2023/10/27 07:09:04;;;;;;;17.67;16.58;;;;;;;-141.02;100.00;40548.38;5132632;28;20675;-65
2023/10/27 07:11:31;;;;;;;17.95;16.85;;;;;;;-141.02;100.00;40536.88;5132517;28;20267;-65
2023/10/27 07:13:58;;;;;;;16.92;15.93;;;;;;;-141.02;98.32;40536.88;5132950;28;20224;-65
2023/10/27 07:16:25;;;;;;;17.52;16.50;;;;;;;-141.02;97.86;40490.81;5132893;28;20224;-66
2023/10/27 07:18:54;;;;;;;17.35;16.25;;;;;;;-141.02;98.51;40490.81;5132821;28;20196;-65
2023/10/27 07:21:21;;;;;;;17.70;16.60;;;;;;;-141.02;97.33;40498.50;5132554;28;20197;-66
2023/10/27 07:23:49;;;;;;;16.88;15.93;;;;;;;-141.02;97.68;40529.19;5132711;28;20203;-65
2023/10/27 07:26:17;;;;;;;18.67;17.58;;;;;;;-141.02;96.05;40529.19;5133784;27;20231;-65
2023/10/27 07:28:44;;;;;;;17.80;16.70;;;;;;;-141.02;95.10;40529.19;5136559;27;20204;-65
2023/10/27 07:31:11;;;;;;;17.55;16.48;;;;;;;-141.02;94.82;40544.53;5136496;27;20220;-66
2023/10/27 07:33:39;;;;;;;18.23;17.13;;;;;;;-141.02;96.74;40513.84;5135914;27;20802;-66
2023/10/27 07:36:09;;;;;;;17.83;16.83;;;;;;;-141.02;96.23;40533.03;5136321;27;20269;-65
2023/10/27 07:38:37;;;;;;;17.60;16.50;;;;;;;-141.02;97.45;40567.56;5136092;27;20673;-66
2023/10/27 07:41:05;;;;;;;17.20;16.20;;;;;;;-141.02;95.82;40651.97;5136360;27;20197;-66
2023/10/27 07:43:32;;;;;;;17.08;16.08;;;;;;;-141.02;97.04;40847.66;5135997;27;20192;-65
2023/10/27 07:45:58;;;;;;;17.85;16.75;;;;;;;-141.02;94.25;40828.47;5135982;27;20715;-65
2023/10/27 07:48:26;;;;;;;17.88;16.77;;;;;;;-141.02;93.69;40968.53;5135969;27;20192;-65
2023/10/27 07:50:56;;;;;;;18.27;17.08;;;;;;;-141.02;91.63;40832.31;5136110;27;20220;-65
2023/10/27 07:53:26;;;;;;;18.13;16.92;;;;;;;-141.02;88.95;40859.19;5135871;27;20249;-65
2023/10/27 07:55:53;;;;;;;18.27;16.98;;;;;;;-141.02;88.65;40866.84;5136088;27;20196;-65
2023/10/27 07:58:22;;;;;;;18.75;17.50;;;;;;;-141.02;89.62;40797.78;5135745;27;20620;-65
2023/10/27 08:00:49;;;;;;;17.88;16.77;;;;;;;-141.02;87.38;40797.78;5136192;27;20283;-65
2023/10/27 08:03:16;;;;;;;19.45;18.10;;;;;;;-141.02;83.00;40845.75;5135580;27;20223;-66
2023/10/27 08:05:43;;;;;;;19.00;17.80;;;;;;;-141.02;82.95;40909.06;5135899;27;20200;-65
2023/10/27 08:08:10;;;;;;;18.67;17.58;;;;;;;-141.02;81.28;41079.81;5135922;27;20198;-65
2023/10/27 08:10:40;;;;;;;18.92;17.65;;;;;;;-141.02;79.09;41154.66;5135439;27;20311;-65
2023/10/27 08:13:07;;;;;;;18.70;17.50;;;;;;;-141.02;78.01;41077.91;5135420;27;20286;-65
2023/10/27 08:15:34;;;;;;;18.58;17.38;;;;;;;-141.02;79.63;41150.81;5135371;27;20197;-65
2023/10/27 08:18:02;;;;;;;18.63;17.42;;;;;;;-141.02;79.19;41189.19;5135386;27;20192;-65
2023/10/27 08:20:29;;;;;;;18.67;17.38;;;;;;;-141.02;77.37;41231.41;5135383;27;20204;-65
2023/10/27 08:22:56;;;;;;;18.90;17.60;;;;;;;-141.02;74.52;41329.28;5135602;27;20196;-65
2023/10/27 08:25:23;;;;;;;19.52;18.23;;;;;;;-141.02;72.34;41338.88;5135602;27;20228;-65
2023/10/27 08:27:52;;;;;;;18.98;17.67;;;;;;;-141.02;69.17;41419.47;5135437;27;20220;-64
2023/10/27 08:30:20;;;;;;;19.10;17.80;;;;;;;-141.02;69.36;41503.91;5135149;27;20221;-65
2023/10/27 08:32:47;;;;;;;19.15;17.88;;;;;;;-141.02;69.92;41643.97;5135090;27;20246;-64
2023/10/27 08:35:14;;;;;;;19.45;18.15;;;;;;;-141.02;68.39;41668.94;5134946;27;20232;-65
2023/10/27 08:37:41;;;;;;;19.58;18.27;;;;;;;-141.02;66.17;41599.84;5135007;27;20335;-65
2023/10/27 08:40:12;;;;;;;19.45;18.15;;;;;;;-141.02;66.87;41572.97;5135224;27;20196;-65
2023/10/27 08:42:50;;;;;;;18.90;17.70;;;;;;;-141.02;68.67;41569.13;5134984;27;20197;-65
2023/10/27 08:45:18;;;;;;;18.95;17.75;;;;;;;-141.02;67.38;41715.00;5133882;27;20180;-65
2023/10/27 08:47:45;;;;;;;19.08;17.88;;;;;;;-141.02;66.59;41791.75;5133875;27;20560;-64
2023/10/27 08:50:12;;;;;;;19.13;17.92;;;;;;;-141.02;65.63;41895.38;5133345;27;20203;-64
2023/10/27 08:52:40;;;;;;;19.35;18.15;;;;;;;-141.02;65.19;41880.03;5134287;27;20224;-64
2023/10/27 08:55:09;;;;;;;19.23;18.02;;;;;;;-141.02;65.05;41979.84;5133856;27;20202;-65
2023/10/27 08:57:36;;;;;;;19.25;18.05;;;;;;;-141.02;63.90;41885.78;5133616;27;20218;-64
2023/10/27 09:00:05;;;;;;;19.45;18.25;;;;;;;-141.02;65.45;41929.94;5134265;27;20685;-64
2023/10/27 09:02:35;;;;;;;19.35;18.15;;;;;;;-141.02;65.57;41887.72;5133730;27;20200;-64
2023/10/27 09:05:04;;;;;;;19.52;18.33;;;;;;;-141.02;64.96;41987.50;5133392;27;20572;-65
2023/10/27 09:07:32;;;;;;;18.90;17.80;;;;;;;-141.02;64.56;42002.88;5134011;27;20225;-65
2023/10/27 09:09:59;;;;;;;19.33;18.13;;;;;;;-141.02;64.12;42014.38;5133637;27;20249;-64
2023/10/27 09:12:29;;;;;;;19.50;18.30;;;;;;;-141.02;63.46;41922.25;5133922;27;20232;-64
2023/10/27 09:15:00;;;;;;;19.45;18.35;;;;;;;-141.02;64.45;42056.59;5133640;27;20228;-65
2023/10/27 09:17:29;;;;;;;19.75;18.65;;;;;;;-141.02;64.45;42121.88;5133673;27;20196;-65
2023/10/27 09:20:09;;;;;;;19.55;18.42;;;;;;;-141.02;63.08;42020.16;5133953;27;20743;-64
2023/10/27 09:22:36;;;;;;;19.55;18.38;;;;;;;-141.02;63.58;42068.13;5133591;27;20244;-64
2023/10/27 09:25:14;;;;;;;19.63;18.52;;;;;;;-141.02;64.07;42018.22;5133850;27;20227;-64
2023/10/27 09:27:44;;;;;;;20.02;18.85;;;;;;;-141.02;63.65;42060.44;5133507;27;20260;-64
2023/10/27 09:30:13;;;;;;;20.17;19.08;;;;;;;-141.02;63.74;42041.25;5134302;27;20193;-64
2023/10/27 09:32:42;;;;;;;19.77;18.67;;;;;;;-141.02;63.05;41976.00;5133938;27;20283;-64
2023/10/27 09:35:13;;;;;;;20.23;19.02;;;;;;;-141.02;64.04;42029.75;5133337;27;20224;-64
2023/10/27 09:37:41;;;;;;;20.10;19.00;;;;;;;-141.02;64.01;41995.19;5133635;27;20721;-64
2023/10/27 09:40:11;;;;;;;20.50;19.40;;;;;;;-141.02;64.57;41983.69;5133131;27;20199;-64
2023/10/27 09:42:39;;;;;;;20.25;19.15;;;;;;;-141.02;64.88;42064.28;5133315;27;20196;-64
2023/10/27 09:45:11;;;;;;;21.10;20.00;;;;;;;-141.02;64.36;42027.81;5133660;27;20327;-64
2023/10/27 09:47:45;;;;;;;22.15;20.92;;;;;;;-141.02;63.59;41999.03;5134223;27;20200;-64
2023/10/27 09:50:16;;;;;;;21.98;20.77;;;;;;;-141.02;63.78;41962.56;5132969;27;20192;-64
2023/10/27 09:52:44;;;;;;;21.45;20.35;;;;;;;-141.02;63.85;41916.50;5133409;27;20273;-64
2023/10/27 09:55:14;;;;;;;22.00;20.80;;;;;;;-141.02;64.01;41952.97;5133694;27;20678;-64
2023/10/27 09:57:42;;;;;;;21.75;20.65;;;;;;;-141.02;64.38;41981.75;5133495;27;20193;-63
2023/10/27 10:00:13;;;;;;;22.17;20.98;;;;;;;-141.02;64.84;41937.63;5133987;27;20184;-64
2023/10/27 10:02:42;;;;;;;21.85;20.75;;;;;;;-141.02;65.39;41910.75;5133383;27;20192;-63
2023/10/27 10:08:34;;;;;;;21.35;20.25;;;;;;;-141.02;65.44;41876.19;5133268;27;20195;-63
2023/10/27 10:11:12;;;;;;;21.73;20.63;;;;;;;-141.02;65.50;41903.06;5133539;27;20220;-63
2023/10/27 10:13:39;;;;;;;22.63;21.42;;;;;;;-141.02;64.29;41954.88;5133218;27;20184;-63
2023/10/27 10:16:08;;;;;;;20.77;19.67;;;;;;;-141.02;65.08;41964.47;5133177;27;20193;-63
2023/10/27 10:18:53;;;;;;;20.50;19.40;;;;;;;-141.02;65.26;41985.59;5133362;27;20227;-63
2023/10/27 10:21:35;;;;;;;20.50;19.40;;;;;;;-141.02;64.94;42068.13;5133504;27;20208;-64
2023/10/27 10:24:13;;;;;;;20.67;19.58;;;;;;;-141.02;63.90;42047.00;5133454;27;20204;-63
2023/10/27 10:27:07;;;;;;;20.83;19.73;;;;;;;-141.02;64.61;42050.84;5133436;27;20248;-63
2023/10/27 10:29:34;;;;;;;20.75;19.65;;;;;;;-141.02;64.21;42037.41;5133348;27;20187;-63
2023/10/27 10:32:39;;;;;;;20.95;19.95;;;;;;;-141.02;63.63;42073.88;5133226;27;20697;-63
2023/10/27 10:35:24;;;;;;;21.27;20.17;;;;;;;-141.02;63.97;42118.03;5132850;27;20284;-64
2023/10/27 10:37:53;;;;;;;20.88;19.77;;;;;;;-141.02;63.71;42194.81;5133215;27;20196;-63
2023/10/27 10:40:23;;;;;;;21.05;19.95;;;;;;;-141.02;63.48;42210.16;5133175;28;20279;-63
2023/10/27 10:43:23;;;;;;;21.02;19.92;;;;;;;-141.02;62.76;42204.41;5132818;28;20581;-63
2023/10/27 10:45:51;;;;;;;21.15;20.05;;;;;;;-141.02;62.56;42160.25;5132883;28;20193;-63
2023/10/27 10:48:19;;;;;;;21.10;20.00;;;;;;;-141.02;62.06;42064.28;5132827;28;20638;-64
2023/10/27 10:50:46;;;;;;;20.35;19.35;;;;;;;-141.02;63.05;42087.31;5132818;27;20288;-63
2023/10/27 10:53:15;;;;;;;21.00;19.90;;;;;;;-141.02;63.69;42033.56;5133068;28;20200;-63
2023/10/27 10:55:46;;;;;;;20.80;19.77;;;;;;;-141.02;63.61;42020.16;5132781;28;20287;-63
2023/10/27 10:58:21;;;;;;;21.25;20.15;;;;;;;-141.02;63.96;42125.69;5132715;28;20192;-63
2023/10/27 11:00:48;;;;;;;20.52;19.42;;;;;;;-141.02;63.56;42060.44;5134719;27;20624;-63
2023/10/27 11:03:15;;;;;;;20.58;19.48;;;;;;;-141.02;63.90;42002.88;5137165;27;20196;-63
2023/10/27 11:05:42;;;;;;;20.52;19.42;;;;;;;-141.02;64.01;41987.50;5137079;27;20253;-63
2023/10/27 11:08:09;;;;;;;20.02;18.92;;;;;;;-141.02;64.62;41968.31;5136731;27;20193;-63
2023/10/27 11:10:37;;;;;;;20.52;19.42;;;;;;;-141.02;64.23;41943.38;5136944;27;20197;-63